GES001 EDVK-ELLX
Flight info
| Callsign | GES001 |
|---|---|
| Flight time | N/A |
| Altitude | 28000 |
| Route | XAROL DCT BITBU |
| Aircraft | GLF5/M-SBDE2E3FGHIJ3J4J5P2RWXY/LB1D1 |
Departure
| Time | 2026-04-30 19:00 |
|---|---|
| Airport | Kassel Airport (EDVK) |
Arrival
| Time | N/A |
|---|---|
| Airport | Luxembourg-Findel International Airport (ELLX) |
| Time | Latitude | Longitude | Altitude | Speed | Heading |
|---|---|---|---|---|---|
| 2026-04-30 18:24 | 51.41700 | 9.38750 | 846 ft | 0 kts | 275° |
| 2026-04-30 18:51 | 51.41700 | 9.38748 | 846 ft | 1 kts | 275° |
| 2026-04-30 18:52 | 51.41719 | 9.38743 | 846 ft | 5 kts | 46° |
| 2026-04-30 18:52 | 51.41738 | 9.38809 | 846 ft | 6 kts | 62° |
| 2026-04-30 18:52 | 51.41775 | 9.38844 | 846 ft | 5 kts | 9° |
| 2026-04-30 18:52 | 51.41814 | 9.38849 | 846 ft | 5 kts | 4° |
| 2026-04-30 18:53 | 51.41861 | 9.38855 | 846 ft | 9 kts | 4° |
| 2026-04-30 18:53 | 51.41936 | 9.38835 | 846 ft | 11 kts | 301° |
| 2026-04-30 18:53 | 51.41948 | 9.38705 | 848 ft | 12 kts | 274° |
| 2026-04-30 18:53 | 51.41956 | 9.38538 | 851 ft | 17 kts | 274° |
| 2026-04-30 18:54 | 51.41969 | 9.38304 | 853 ft | 23 kts | 275° |
| 2026-04-30 18:54 | 51.41982 | 9.38076 | 863 ft | 17 kts | 274° |
| 2026-04-30 18:54 | 51.41992 | 9.37894 | 867 ft | 14 kts | 274° |
| 2026-04-30 18:54 | 51.41999 | 9.37748 | 870 ft | 12 kts | 274° |
| 2026-04-30 18:55 | 51.42008 | 9.37596 | 871 ft | 15 kts | 275° |
| 2026-04-30 18:55 | 51.42041 | 9.37429 | 871 ft | 4 kts | 344° |
| 2026-04-30 18:55 | 51.42068 | 9.37428 | 869 ft | 0 kts | 3° |
| 2026-04-30 18:56 | 51.42072 | 9.37429 | 869 ft | 1 kts | 4° |
| 2026-04-30 18:56 | 51.42095 | 9.37432 | 868 ft | 4 kts | 5° |
| 2026-04-30 18:56 | 51.42129 | 9.37437 | 868 ft | 5 kts | 6° |
| 2026-04-30 18:57 | 51.42171 | 9.37502 | 866 ft | 2 kts | 95° |
| 2026-04-30 18:57 | 51.42171 | 9.37505 | 866 ft | 0 kts | 95° |
| 2026-04-30 19:00 | 51.42163 | 9.37653 | 864 ft | 48 kts | 95° |
| 2026-04-30 19:00 | 51.42102 | 9.38775 | 901 ft | 144 kts | 95° |
| 2026-04-30 19:00 | 51.42011 | 9.42034 | 2345 ft | 171 kts | 94° |
| 2026-04-30 19:01 | 51.41878 | 9.46421 | 2212 ft | 229 kts | 94° |
| 2026-04-30 19:01 | 51.41810 | 9.48628 | 4587 ft | 188 kts | 93° |
| 2026-04-30 19:02 | 51.41744 | 9.52950 | 4994 ft | 194 kts | 77° |
| 2026-04-30 19:02 | 51.43983 | 9.55080 | 5036 ft | 215 kts | 8° |
| 2026-04-30 19:03 | 51.46927 | 9.54236 | 5020 ft | 231 kts | 318° |
| 2026-04-30 19:03 | 51.47917 | 9.48452 | 6612 ft | 297 kts | 275° |
| 2026-04-30 19:04 | 51.48342 | 9.41811 | 9297 ft | 317 kts | 274° |
| 2026-04-30 19:04 | 51.46702 | 9.35470 | 9409 ft | 311 kts | 226° |
| 2026-04-30 19:05 | 51.43953 | 9.30169 | 9397 ft | 307 kts | 228° |